Time;durP1;ratioP1;P1;durP2;ratioP2;P2;SDS_P1;SDS_P2;PMS_P1;PMS_P2;Temp;Humidity;BMP_temperature;BMP_pressure;BME280_temperature;BME280_humidity;BME280_pressure;Samples;Min_cycle;Max_cycle;Signal;HPM_P1;HPM_P2
2023/10/17 00:01:13;;;;;;;7.07;4.82;;;;;;;;;;6268736;22;20040;-89
2023/10/17 00:07:29;;;;;;;10.82;5.90;;;;;;;;;;6268777;23;20027;-89
2023/10/17 00:10:26;;;;;;;11.25;5.25;;;;;;;;;;6267806;22;20016;-89
2023/10/17 00:16:16;;;;;;;10.52;5.40;;;;;;;;;;6272308;22;20008;-87
2023/10/17 00:19:04;;;;;;;10.45;5.72;;;;;;;;;;6271469;22;20016;-89
2023/10/17 00:21:59;;;;;;;;;;;;;;;;;;;;;
2023/10/17 00:25:09;;;;;;;12.50;6.70;;;;;;;;;;6271343;22;20070;-87
2023/10/17 00:27:58;;;;;;;10.88;6.05;;;;;;;;;;6272241;22;20037;-88
2023/10/17 00:30:44;;;;;;;9.55;5.43;;;;;;;;;;6272835;22;20043;-89
2023/10/17 00:33:27;;;;;;;8.68;5.18;;;;;;;;;;6266821;22;20016;-88
2023/10/17 00:36:14;;;;;;;9.75;5.85;;;;;;;;;;6269152;23;20024;-88
2023/10/17 00:39:21;;;;;;;;;;;;;;;;;;;;;
2023/10/17 00:42:17;;;;;;;9.85;5.28;;;;;;;;;;6271108;22;20019;-87
2023/10/17 00:45:16;;;;;;;11.50;5.97;;;;;;;;;;6267744;22;20038;-89
2023/10/17 00:48:08;;;;;;;10.65;5.40;;;;;;;;;;6270792;22;20022;-89
2023/10/17 00:50:57;;;;;;;8.60;5.90;;;;;;;;;;6269535;22;20035;-88
2023/10/17 00:53:40;;;;;;;9.23;5.40;;;;;;;;;;6268150;23;20004;-88
2023/10/17 00:56:26;;;;;;;12.68;6.32;;;;;;;;;;6270960;22;20012;-89
2023/10/17 00:59:10;;;;;;;9.40;5.60;;;;;;;;;;6270315;23;20048;-89
2023/10/17 01:01:56;;;;;;;10.88;6.70;;;;;;;;;;6267498;23;20040;-87
2023/10/17 01:04:40;;;;;;;9.35;6.05;;;;;;;;;;6266960;22;20011;-88
2023/10/17 01:07:29;;;;;;;10.52;5.15;;;;;;;;;;6267667;22;20063;-87
2023/10/17 01:10:42;;;;;;;8.10;5.82;;;;;;;;;;6269984;23;20024;-89
2023/10/17 01:13:27;;;;;;;11.65;5.93;;;;;;;;;;6268220;22;20198;-88
2023/10/17 01:16:15;;;;;;;8.60;5.88;;;;;;;;;;6266246;23;20016;-88
2023/10/17 01:19:04;;;;;;;9.65;6.60;;;;;;;;;;6264965;22;20012;-89
2023/10/17 01:21:56;;;;;;;13.63;6.60;;;;;;;;;;6263411;23;20047;-88
2023/10/17 01:24:40;;;;;;;8.98;5.70;;;;;;;;;;6264216;23;20064;-89
2023/10/17 01:27:24;;;;;;;8.57;5.55;;;;;;;;;;6265741;23;20039;-89
2023/10/17 01:30:23;;;;;;;8.50;5.35;;;;;;;;;;6266414;23;20020;-88
2023/10/17 01:33:12;;;;;;;18.75;6.45;;;;;;;;;;6265286;23;20015;-89
2023/10/17 01:36:04;;;;;;;10.55;6.40;;;;;;;;;;6267421;22;20011;-89
2023/10/17 01:41:50;;;;;;;11.27;6.53;;;;;;;;;;6306176;22;20017;-89
2023/10/17 01:45:10;;;;;;;7.45;5.55;;;;;;;;;;6330586;22;20023;-89
2023/10/17 01:48:32;;;;;;;12.27;5.85;;;;;;;;;;6326887;22;20018;-88
2023/10/17 01:52:06;;;;;;;11.50;6.88;;;;;;;;;;6327496;22;20039;-87
2023/10/17 01:54:52;;;;;;;10.30;6.40;;;;;;;;;;6271731;22;20015;-89
2023/10/17 01:57:34;;;;;;;12.38;6.95;;;;;;;;;;6303968;22;20015;-88
2023/10/17 02:03:20;;;;;;;10.77;6.82;;;;;;;;;;6332060;22;20003;-89
2023/10/17 02:06:13;;;;;;;13.65;6.72;;;;;;;;;;6306538;22;20011;-88
2023/10/17 02:08:55;;;;;;;13.00;7.28;;;;;;;;;;6305017;22;20003;-88
2023/10/17 02:11:44;;;;;;;13.02;6.35;;;;;;;;;;6282313;22;20011;-89
2023/10/17 02:14:26;;;;;;;14.10;6.20;;;;;;;;;;6303458;22;20015;-88
2023/10/17 02:17:09;;;;;;;9.10;5.53;;;;;;;;;;6292990;22;20020;-90
2023/10/17 02:20:44;;;;;;;;;;;;;;;;;;;;;
2023/10/17 02:23:29;;;;;;;13.80;7.43;;;;;;;;;;6331135;22;20063;-89
2023/10/17 02:26:20;;;;;;;14.35;7.47;;;;;;;;;;6305975;22;20007;-88
2023/10/17 02:29:05;;;;;;;12.98;7.68;;;;;;;;;;6305792;22;20055;-89
2023/10/17 02:31:52;;;;;;;11.30;7.10;;;;;;;;;;6307480;22;20023;-88
2023/10/17 02:34:34;;;;;;;12.55;8.05;;;;;;;;;;6309371;22;20015;-90
2023/10/17 02:37:29;;;;;;;17.83;7.15;;;;;;;;;;6310664;22;20013;-87
2023/10/17 02:40:22;;;;;;;13.32;7.88;;;;;;;;;;6332568;22;20013;-88
2023/10/17 02:43:39;;;;;;;;;;;;;;;;;;;;;
2023/10/17 02:46:30;;;;;;;11.73;7.47;;;;;;;;;;6333609;22;20071;-88
2023/10/17 02:49:20;;;;;;;11.07;7.63;;;;;;;;;;6307620;22;20039;-86
2023/10/17 02:52:06;;;;;;;12.07;7.30;;;;;;;;;;6308834;22;20011;-90
2023/10/17 02:54:59;;;;;;;12.50;6.57;;;;;;;;;;6308336;22;19999;-89
2023/10/17 02:57:44;;;;;;;10.00;6.38;;;;;;;;;;6308102;22;20049;-88
2023/10/17 03:00:35;;;;;;;12.30;6.75;;;;;;;;;;6292751;22;20003;-88
2023/10/17 03:03:39;;;;;;;12.68;7.40;;;;;;;;;;6310975;22;20043;-89
2023/10/17 03:07:23;;;;;;;12.35;7.43;;;;;;;;;;6331840;22;20007;-89
2023/10/17 03:09:51;;;;;;;11.80;7.00;;;;;;;;;;6329203;22;20007;-89
2023/10/17 03:12:55;;;;;;;17.67;7.18;;;;;;;;;;6332445;22;20030;-88
2023/10/17 03:15:45;;;;;;;13.45;7.13;;;;;;;;;;6310603;22;20055;-88
2023/10/17 03:19:35;;;;;;;;;;;;;;;;;;;;;
2023/10/17 03:26:09;;;;;;;16.10;8.65;;;;;;;;;;6226353;22;20019;-88
2023/10/17 03:29:46;;;;;;;14.43;8.38;;;;;;;;;;6291438;22;20008;-88
2023/10/17 04:16:44;;;;;;;12.18;7.65;;;;;;;;;;6318538;22;20019;-89
2023/10/17 04:19:42;;;;;;;15.77;7.78;;;;;;;;;;6317646;22;20044;-87
2023/10/17 06:34:55;;;;;;;;;;;;;;;;;;;;;
2023/10/17 07:00:51;;;;;;;14.57;9.27;;;;;;;;;;6327313;22;20021;-89
2023/10/17 09:12:01;;;;;;;3.53;1.13;;;;;;;;;;6314037;22;20007;-91
2023/10/17 21:05:16;;;;;;;;;;;;;;;;;;;;;
2023/10/17 21:14:54;;;;;;;18.88;6.97;;;;;;;;;;6306586;22;20042;-88
2023/10/17 21:18:00;;;;;;;;;;;;;;;;;;;;;
2023/10/17 21:50:51;;;;;;;17.63;7.27;;;;;;;;;;6296435;22;20003;-87
2023/10/17 21:56:44;;;;;;;11.98;5.40;;;;;;;;;;6332226;22;20022;-88
2023/10/17 22:07:35;;;;;;;16.60;6.93;;;;;;;;;;6305105;22;20019;-89
2023/10/17 22:10:43;;;;;;;22.77;7.13;;;;;;;;;;6309810;22;20011;-88
2023/10/17 22:13:36;;;;;;;15.20;6.22;;;;;;;;;;6285783;22;20037;-89
2023/10/17 22:16:40;;;;;;;16.50;6.35;;;;;;;;;;6323729;22;19999;-89
2023/10/17 22:19:37;;;;;;;16.42;5.80;;;;;;;;;;6342021;22;20022;-89
2023/10/17 22:22:37;;;;;;;18.30;6.53;;;;;;;;;;6368359;22;20033;-88
2023/10/17 22:25:28;;;;;;;24.83;6.03;;;;;;;;;;6323372;22;20024;-87
2023/10/17 22:31:50;;;;;;;12.13;6.18;;;;;;;;;;6361351;22;20059;-89
2023/10/17 22:35:33;;;;;;;;;;;;;;;;;;;;;
